Terminal Aerodrome Forecast
Issued by NWS Charleston, WV

Current Version | Previous Version | Graphics & Text | Print | Product List | Glossary On
Versions: 1 2 3 4 5 6 7 8 9 10 11 12 13 14 15 16 17 18 19 20 21 22 23 24 25
000
FTUS41 KRLX 302300
TAFHTS
TAF
KHTS 302333Z 0100/0124 VRB05KT P6SM -SHRA SCT025 BKN040
     FM010500 34004KT P6SM BKN020
     FM011000 34004KT P6SM BKN008
     FM011200 34004KT P6SM BKN015
     FM011500 33004KT P6SM SCT030
     FM011700 35010G18KT P6SM BKN040=

USA.gov is the U.S. government's official web portal to all federal, state and local government web resources and services.